createdAt,value
2024-01-05T00:00:10.860Z,100585.19
2024-01-05T00:02:39.908Z,100577.44
2024-01-05T00:05:08.371Z,100560.56
2024-01-05T00:07:36.400Z,100546.19
2024-01-05T00:10:04.311Z,100583.16
2024-01-05T00:12:32.205Z,100568.69
2024-01-05T00:15:00.206Z,100545.38
2024-01-05T00:17:28.021Z,100554.84
2024-01-05T00:19:57.040Z,100549.81
2024-01-05T00:22:24.802Z,100555.19
2024-01-05T00:24:52.440Z,100525.75
2024-01-05T00:27:20.187Z,100547.66
2024-01-05T00:29:47.867Z,100567.78
2024-01-05T00:32:18.577Z,100540.66
2024-01-05T00:34:47.468Z,100532.09
2024-01-05T00:37:16.538Z,100512.41
2024-01-05T00:39:44.210Z,100546.06
2024-01-05T00:42:11.853Z,100541.28
2024-01-05T00:44:41.181Z,100534.19
2024-01-05T00:47:09.146Z,100510.72
2024-01-05T00:49:38.501Z,100514.94
2024-01-05T00:52:06.913Z,100534.25
2024-01-05T00:54:35.990Z,100537.81
2024-01-05T00:57:03.974Z,100530.84
2024-01-05T00:59:31.633Z,100529.28
2024-01-05T01:01:59.296Z,100475.72
2024-01-05T01:04:27.059Z,100513.56
2024-01-05T01:06:54.791Z,100501.50
2024-01-05T01:09:22.487Z,100510.78
2024-01-05T01:11:52.894Z,100508.19
2024-01-05T01:14:20.640Z,100510.06
2024-01-05T01:16:48.301Z,100504.41
2024-01-05T01:19:16.069Z,100516.56
2024-01-05T01:21:43.810Z,100532.66
2024-01-05T01:24:11.526Z,100523.16
2024-01-05T01:26:40.231Z,100505.50
2024-01-05T01:29:10.181Z,100511.56
2024-01-05T01:31:37.892Z,100504.91
2024-01-05T01:34:06.662Z,100459.03
2024-01-05T01:36:34.545Z,100508.63
2024-01-05T01:39:01.662Z,100471.19
2024-01-05T01:41:29.373Z,100489.56
2024-01-05T01:43:57.030Z,100466.78
2024-01-05T01:46:26.699Z,100466.19
2024-01-05T01:48:54.948Z,100473.19
2024-01-05T01:51:23.270Z,100478.16
2024-01-05T01:53:51.418Z,100463.34
2024-01-05T01:56:19.204Z,100495.53
2024-01-05T01:58:47.187Z,100480.88
2024-01-05T02:01:15.557Z,100460.75
2024-01-05T02:03:45.373Z,100467.75
2024-01-05T02:06:13.205Z,100459.44
2024-01-05T02:08:40.981Z,100467.31
2024-01-05T02:11:08.804Z,100497.56
2024-01-05T02:13:36.514Z,100443.38
2024-01-05T02:16:04.269Z,100457.09
2024-01-05T02:18:32.069Z,100437.00
2024-01-05T02:21:03.688Z,100439.69
2024-01-05T02:23:33.253Z,100445.59
2024-01-05T02:26:01.669Z,100449.50
2024-01-05T02:28:29.478Z,100444.44
2024-01-05T02:30:57.910Z,100466.22
2024-01-05T02:33:26.102Z,100443.00
2024-01-05T02:35:54.224Z,100410.41
2024-01-05T02:38:22.113Z,100438.34
2024-01-05T02:40:51.169Z,100437.69
2024-01-05T02:43:18.827Z,100428.13
2024-01-05T02:45:46.478Z,100424.69
2024-01-05T02:48:14.422Z,100420.38
2024-01-05T02:50:42.251Z,100429.97
2024-01-05T02:53:09.904Z,100424.78
2024-01-05T02:55:37.577Z,100416.13
2024-01-05T02:58:06.788Z,100440.56
2024-01-05T03:00:34.680Z,100421.47
2024-01-05T03:03:02.676Z,100420.69
2024-01-05T03:05:30.453Z,100431.34
2024-01-05T03:07:58.148Z,100390.66
2024-01-05T03:10:25.810Z,100390.78
2024-01-05T03:12:53.824Z,100377.84
2024-01-05T03:15:22.922Z,100388.75
2024-01-05T03:17:51.894Z,100372.56
2024-01-05T03:20:21.067Z,100389.84
2024-01-05T03:22:48.858Z,100401.19
2024-01-05T03:25:17.022Z,100376.06
2024-01-05T03:27:44.672Z,100389.13
2024-01-05T03:30:13.008Z,100366.69
2024-01-05T03:32:42.150Z,100366.72
2024-01-05T03:35:10.149Z,100358.88
2024-01-05T03:37:37.840Z,100373.63
2024-01-05T03:40:06.479Z,100368.53
2024-01-05T03:42:34.392Z,100360.88
2024-01-05T03:45:02.392Z,100358.31
2024-01-05T03:47:30.139Z,100340.34
2024-01-05T03:49:59.232Z,100330.56
2024-01-05T03:52:26.955Z,100326.69
2024-01-05T03:54:55.012Z,100325.84
2024-01-05T03:57:23.033Z,100348.31
2024-01-05T03:59:50.842Z,100346.75
2024-01-05T04:02:18.566Z,100351.03
2024-01-05T04:04:46.413Z,100313.91
2024-01-05T04:07:15.758Z,100316.69
2024-01-05T04:09:43.407Z,100311.44
2024-01-05T04:12:12.484Z,100294.25
2024-01-05T04:14:40.285Z,100327.94
2024-01-05T04:17:07.965Z,100270.53
2024-01-05T04:19:35.739Z,100311.00
2024-01-05T04:22:05.289Z,100303.06
2024-01-05T04:24:34.436Z,100300.66
2024-01-05T04:27:02.419Z,100311.06
2024-01-05T04:29:30.153Z,100315.41
2024-01-05T04:31:57.785Z,100300.72
2024-01-05T04:34:25.786Z,100281.72
2024-01-05T04:36:55.791Z,100285.16
2024-01-05T04:39:23.522Z,100293.81
2024-01-05T04:41:52.583Z,100287.06
2024-01-05T04:44:20.927Z,100267.16
2024-01-05T04:46:48.602Z,100291.41
2024-01-05T04:49:16.319Z,100281.94
2024-01-05T04:51:44.562Z,100271.53
2024-01-05T04:54:12.683Z,100280.91
2024-01-05T04:56:41.044Z,100280.03
2024-01-05T04:59:10.085Z,100266.38
2024-01-05T05:01:37.780Z,100266.34
2024-01-05T05:04:05.881Z,100257.75
2024-01-05T05:06:34.094Z,100264.56
2024-01-05T05:09:01.955Z,100272.50
2024-01-05T05:11:29.688Z,100268.19
2024-01-05T05:13:57.346Z,100262.81
2024-01-05T05:16:26.352Z,100263.91
2024-01-05T05:18:54.857Z,100274.25
2024-01-05T05:21:22.699Z,100268.47
2024-01-05T05:23:50.391Z,100237.38
2024-01-05T05:26:18.246Z,100257.88
2024-01-05T05:28:45.917Z,100251.03
2024-01-05T05:31:14.219Z,100257.16
2024-01-05T05:33:43.460Z,100268.47
2024-01-05T05:36:11.206Z,100245.84
2024-01-05T05:38:38.905Z,100239.06
2024-01-05T05:41:06.533Z,100244.97
2024-01-05T05:43:34.230Z,100251.13
2024-01-05T05:46:01.900Z,100247.75
2024-01-05T05:48:29.760Z,100242.47
2024-01-05T05:50:58.943Z,100226.19
2024-01-05T05:53:26.648Z,100231.28
2024-01-05T05:55:54.410Z,100244.38
2024-01-05T05:58:23.021Z,100239.25
2024-01-05T06:00:51.023Z,100250.47
2024-01-05T06:03:18.860Z,100227.16
2024-01-05T06:05:46.674Z,100224.59
2024-01-05T06:08:15.705Z,100234.03
2024-01-05T06:10:43.901Z,100234.97
2024-01-05T06:13:11.942Z,100218.72
2024-01-05T06:15:39.930Z,100204.00
2024-01-05T06:18:08.481Z,100225.44
2024-01-05T06:20:36.262Z,100230.75
2024-01-05T06:23:04.196Z,100225.56
2024-01-05T06:25:33.570Z,100225.41
2024-01-05T06:28:01.434Z,100233.19
2024-01-05T06:30:29.279Z,100234.97
2024-01-05T06:32:57.173Z,100222.78
2024-01-05T06:35:24.902Z,100239.16
2024-01-05T06:37:52.564Z,100234.84
2024-01-05T06:40:20.210Z,100226.38
2024-01-05T06:42:49.243Z,100222.22
2024-01-05T06:45:18.108Z,100222.03
2024-01-05T06:47:45.912Z,100214.38
2024-01-05T06:50:14.071Z,100223.72
2024-01-05T06:52:41.873Z,100225.41
2024-01-05T06:55:10.561Z,100212.81
2024-01-05T06:57:38.307Z,100236.63
2024-01-05T07:00:10.709Z,100217.59
2024-01-05T07:02:38.775Z,100227.94
2024-01-05T07:05:07.176Z,100245.25
2024-01-05T07:07:35.153Z,100223.81
2024-01-05T07:10:02.852Z,100232.22
2024-01-05T07:12:30.579Z,100246.91
2024-01-05T07:14:58.438Z,100217.78
2024-01-05T07:17:27.625Z,100248.91
2024-01-05T07:19:55.322Z,100210.25
2024-01-05T07:22:23.129Z,100220.41
2024-01-05T07:24:50.789Z,100212.78
2024-01-05T07:27:18.686Z,100207.56
2024-01-05T07:29:46.353Z,100230.00
2024-01-05T07:32:13.989Z,100210.25
2024-01-05T07:34:43.192Z,100204.22
2024-01-05T07:37:10.887Z,100196.44
2024-01-05T07:39:38.594Z,100191.34
2024-01-05T07:42:06.821Z,100208.44
2024-01-05T07:44:34.628Z,100216.53
2024-01-05T07:47:02.309Z,100169.16
2024-01-05T07:49:30.194Z,100198.59
2024-01-05T07:51:59.378Z,100165.88
2024-01-05T07:54:27.301Z,100167.34
2024-01-05T07:56:55.060Z,100175.19
2024-01-05T07:59:22.772Z,100163.97
2024-01-05T08:01:52.964Z,100151.41
2024-01-05T08:04:20.867Z,100183.09
2024-01-05T08:06:49.513Z,100172.78
2024-01-05T08:09:19.081Z,100182.06
2024-01-05T08:11:47.137Z,100179.50
2024-01-05T08:14:15.364Z,100196.75
2024-01-05T08:16:43.049Z,100177.75
2024-01-05T08:19:11.584Z,100169.38
2024-01-05T08:21:39.374Z,100184.66
2024-01-05T08:24:07.384Z,100168.41
2024-01-05T08:26:36.767Z,100196.00
2024-01-05T08:29:04.519Z,100170.03
2024-01-05T08:31:32.282Z,100158.03
2024-01-05T08:34:00.078Z,100175.81
2024-01-05T08:36:29.155Z,100173.47
2024-01-05T08:38:56.977Z,100155.63
2024-01-05T08:41:25.315Z,100167.63
2024-01-05T08:43:54.511Z,100158.25
2024-01-05T08:46:22.152Z,100170.13
2024-01-05T08:48:50.081Z,100192.63
2024-01-05T08:51:17.960Z,100180.25
2024-01-05T08:53:45.923Z,100164.75
2024-01-05T08:56:14.382Z,100183.63
2024-01-05T08:58:42.571Z,100189.72
2024-01-05T09:01:12.276Z,100176.88
2024-01-05T09:03:40.267Z,100202.50
2024-01-05T09:06:08.354Z,100193.06
2024-01-05T09:08:36.047Z,100186.44
2024-01-05T09:11:03.868Z,100185.47
2024-01-05T09:13:32.899Z,100185.53
2024-01-05T09:16:01.307Z,100189.72
2024-01-05T09:18:35.162Z,100193.28
2024-01-05T09:21:03.409Z,100197.56
2024-01-05T09:23:31.273Z,100170.84
2024-01-05T09:25:58.917Z,100192.28
2024-01-05T09:28:27.556Z,100182.94
2024-01-05T09:30:55.775Z,100160.81
2024-01-05T09:33:25.760Z,100168.34
2024-01-05T09:35:55.004Z,100170.88
2024-01-05T09:38:22.955Z,100137.59
2024-01-05T09:40:54.331Z,100171.66
2024-01-05T09:43:24.816Z,100178.69
2024-01-05T09:45:53.819Z,100169.31
2024-01-05T09:48:27.765Z,100190.63
2024-01-05T09:51:00.838Z,100146.06
2024-01-05T09:53:28.696Z,100142.47
2024-01-05T09:55:56.934Z,100144.38
2024-01-05T09:58:24.719Z,100171.06
2024-01-05T10:00:53.782Z,100154.94
2024-01-05T10:03:23.519Z,100132.47
2024-01-05T10:05:52.452Z,100146.06
2024-01-05T10:08:22.826Z,100150.53
2024-01-05T10:10:54.209Z,100098.25
2024-01-05T10:13:22.085Z,100144.38
2024-01-05T10:15:57.389Z,100147.06
2024-01-05T10:18:26.903Z,100177.91
2024-01-05T10:20:55.075Z,100172.88
2024-01-05T10:23:24.409Z,100168.47
2024-01-05T10:25:52.948Z,100148.63
2024-01-05T10:28:31.441Z,100131.66
2024-01-05T10:31:13.370Z,100130.72
2024-01-05T10:33:52.738Z,100120.44
2024-01-05T10:36:21.742Z,100133.25
2024-01-05T10:38:52.531Z,100161.69
2024-01-05T10:41:22.209Z,100114.59
2024-01-05T10:43:50.648Z,100131.97
2024-01-05T10:46:19.867Z,100127.50
2024-01-05T10:48:47.779Z,100148.25
2024-01-05T10:51:17.740Z,100100.06
2024-01-05T10:53:47.298Z,100107.84
2024-01-05T10:56:19.473Z,100088.19
2024-01-05T10:58:50.096Z,100098.44
2024-01-05T11:01:20.181Z,100078.00
2024-01-05T11:03:51.318Z,100106.38
2024-01-05T11:06:20.448Z,100077.81
2024-01-05T11:09:05.552Z,100104.56
2024-01-05T11:11:45.178Z,100095.06
2024-01-05T11:14:24.173Z,100110.22
2024-01-05T11:17:18.622Z,100100.75
2024-01-05T11:19:58.595Z,100105.44
2024-01-05T11:22:31.321Z,100105.44
2024-01-05T11:24:59.704Z,100087.41
2024-01-05T11:27:34.338Z,100086.28
2024-01-05T11:30:03.618Z,100080.41
2024-01-05T11:32:39.437Z,100086.56
2024-01-05T11:35:44.269Z,100081.31
2024-01-05T11:38:29.373Z,100095.19
2024-01-05T11:40:57.547Z,100056.69
2024-01-05T11:43:40.013Z,100064.28
2024-01-05T11:46:08.787Z,100059.38
2024-01-05T11:48:53.880Z,100020.00
2024-01-05T11:51:21.991Z,100049.78
2024-01-05T11:53:51.089Z,100061.78
2024-01-05T11:56:22.814Z,100029.31
2024-01-05T11:58:52.255Z,100051.63
2024-01-05T12:01:21.259Z,100041.56
2024-01-05T12:03:50.003Z,100021.22
2024-01-05T12:06:18.096Z,100024.47
2024-01-05T12:08:46.420Z,100019.22
2024-01-05T12:11:14.243Z,100026.00
2024-01-05T12:13:42.102Z,100025.16
2024-01-05T12:16:11.920Z,100017.34
2024-01-05T12:18:45.883Z,100043.19
2024-01-05T12:21:16.010Z,100014.41
2024-01-05T12:23:52.944Z,100029.59
2024-01-05T12:26:21.217Z,100026.00
2024-01-05T12:28:50.138Z,100034.72
2024-01-05T12:31:20.694Z,100003.16
2024-01-05T12:33:49.205Z,100044.88
2024-01-05T12:36:27.176Z,100041.53
2024-01-05T12:38:55.113Z,100030.34
2024-01-05T12:41:23.420Z,100051.94
2024-01-05T12:43:53.052Z,100051.00
2024-01-05T12:46:24.680Z,100014.25
2024-01-05T12:48:52.987Z,100063.84
2024-01-05T12:51:23.972Z,100043.22
2024-01-05T12:53:59.994Z,100061.28
2024-01-05T12:56:28.171Z,100038.22
2024-01-05T12:58:56.060Z,100051.00
2024-01-05T13:01:26.546Z,100055.88
2024-01-05T13:03:56.577Z,100049.09
2024-01-05T13:06:25.777Z,100020.19
2024-01-05T13:08:54.511Z,100035.47
2024-01-05T13:11:22.769Z,100033.00
2024-01-05T13:13:51.734Z,100023.06
2024-01-05T13:16:20.128Z,100058.88
2024-01-05T13:18:49.939Z,100027.81
2024-01-05T13:21:18.021Z,100026.84
2024-01-05T13:23:47.907Z,100023.31
2024-01-05T13:26:15.899Z,100036.44
2024-01-05T13:28:44.978Z,100010.97
2024-01-05T13:31:12.988Z,99993.59
2024-01-05T13:33:41.867Z,100044.25
2024-01-05T13:36:11.496Z,100025.09
2024-01-05T13:38:39.664Z,100024.41
2024-01-05T13:41:07.680Z,100027.72
2024-01-05T13:43:36.528Z,100008.13
2024-01-05T13:46:05.572Z,100015.97
2024-01-05T13:48:33.667Z,100051.78
2024-01-05T13:51:01.991Z,100045.69
2024-01-05T13:53:31.277Z,100051.75
2024-01-05T13:55:59.694Z,100038.00
2024-01-05T13:58:27.737Z,100041.38
2024-01-05T14:00:59.536Z,100046.75
2024-01-05T14:03:29.661Z,100003.94
2024-01-05T14:05:57.972Z,100050.19
2024-01-05T14:08:25.955Z,100033.69
2024-01-05T14:10:56.192Z,100015.78
2024-01-05T14:13:24.443Z,100029.59
2024-01-05T14:15:52.278Z,100042.59
2024-01-05T14:18:20.218Z,100052.84
2024-01-05T14:20:47.950Z,100048.41
2024-01-05T14:23:15.717Z,100043.25
2024-01-05T14:25:43.384Z,100045.06
2024-01-05T14:28:12.385Z,100034.81
2024-01-05T14:30:40.657Z,100051.00
2024-01-05T14:33:08.806Z,100061.19
2024-01-05T14:35:36.910Z,100043.22
2024-01-05T14:38:04.861Z,100032.97
2024-01-05T14:40:32.565Z,100044.00
2024-01-05T14:42:59.395Z,100043.13
2024-01-05T14:45:28.427Z,100041.66
2024-01-05T14:47:56.135Z,100047.75
2024-01-05T14:50:23.935Z,100044.06
2024-01-05T14:52:56.117Z,100055.19
2024-01-05T14:55:31.591Z,100028.56
2024-01-05T14:58:02.036Z,100039.84
2024-01-05T15:00:31.236Z,100044.16
2024-01-05T15:03:00.862Z,100022.72
2024-01-05T15:05:28.794Z,100058.44
2024-01-05T15:07:56.644Z,100057.44
2024-01-05T15:10:24.719Z,100026.00
2024-01-05T15:12:53.560Z,100069.56
2024-01-05T15:15:21.573Z,100054.22
2024-01-05T15:17:51.171Z,100068.66
2024-01-05T15:20:19.060Z,100068.69
2024-01-05T15:22:46.871Z,100068.03
2024-01-05T15:25:16.237Z,100060.25
2024-01-05T15:27:44.072Z,100061.88
2024-01-05T15:30:13.332Z,100076.31
2024-01-05T15:32:41.352Z,100090.84
2024-01-05T15:35:11.867Z,100099.56
2024-01-05T15:37:39.577Z,100100.13
2024-01-05T15:40:08.940Z,100107.00
2024-01-05T15:42:36.746Z,100109.41
2024-01-05T15:45:04.823Z,100127.59
2024-01-05T15:47:32.517Z,100059.94
2024-01-05T15:50:00.519Z,100109.69
2024-01-05T15:52:29.766Z,100107.44
2024-01-05T15:54:57.438Z,100072.88
2024-01-05T15:57:25.158Z,100087.47
2024-01-05T15:59:52.907Z,100075.41
2024-01-05T16:02:20.610Z,100085.47
2024-01-05T16:04:49.568Z,100089.88
2024-01-05T16:07:17.444Z,100076.31
2024-01-05T16:09:46.981Z,100095.81
2024-01-05T16:12:14.664Z,100098.41
2024-01-05T16:14:48.224Z,100068.56
2024-01-05T16:17:16.129Z,100099.84
2024-01-05T16:19:43.866Z,100097.53
2024-01-05T16:22:11.526Z,100083.78
2024-01-05T16:24:39.191Z,100056.47
2024-01-05T16:27:08.375Z,100090.63
2024-01-05T16:29:36.026Z,100094.84
2024-01-05T16:32:03.739Z,100104.44
2024-01-05T16:34:31.511Z,100103.44
2024-01-05T16:37:04.836Z,100107.63
2024-01-05T16:39:32.686Z,100112.81
2024-01-05T16:42:00.360Z,100113.78
2024-01-05T16:44:29.343Z,100119.00
2024-01-05T16:46:57.403Z,100120.63
2024-01-05T16:49:25.250Z,100088.69
2024-01-05T16:51:55.012Z,100102.31
2024-01-05T16:54:22.726Z,100105.00
2024-01-05T16:56:54.630Z,100100.91
2024-01-05T16:59:24.232Z,100109.59
2024-01-05T17:01:53.244Z,100109.56
2024-01-05T17:04:23.571Z,100129.22
2024-01-05T17:06:53.347Z,100119.69
2024-01-05T17:09:21.812Z,100128.25
2024-01-05T17:11:49.559Z,100113.50
2024-01-05T17:14:17.849Z,100108.28
2024-01-05T17:16:47.840Z,100140.25
2024-01-05T17:19:17.391Z,100105.00
2024-01-05T17:21:45.300Z,100107.25
2024-01-05T17:24:13.150Z,100127.25
2024-01-05T17:26:41.641Z,100099.91
2024-01-05T17:29:09.320Z,100125.41
2024-01-05T17:31:37.119Z,100133.13
2024-01-05T17:34:04.961Z,100129.56
2024-01-05T17:36:40.437Z,100126.22
2024-01-05T17:39:08.512Z,100146.94
2024-01-05T17:41:36.676Z,100130.59
2024-01-05T17:44:04.889Z,100120.97
2024-01-05T17:46:32.603Z,100142.41
2024-01-05T17:49:00.413Z,100139.09
2024-01-05T17:51:33.679Z,100144.97
2024-01-05T17:54:02.847Z,100138.22
2024-01-05T17:56:34.016Z,100133.84
2024-01-05T17:59:04.142Z,100144.84
2024-01-05T18:01:32.674Z,100134.59
2024-01-05T18:04:00.924Z,100157.84
2024-01-05T18:06:28.980Z,100166.44
2024-01-05T18:08:56.698Z,100151.72
2024-01-05T18:11:26.562Z,100150.56
2024-01-05T18:13:54.256Z,100148.97
2024-01-05T18:16:23.247Z,100149.03
2024-01-05T18:18:51.100Z,100162.13
2024-01-05T18:21:22.352Z,100153.66
2024-01-05T18:23:50.365Z,100141.41
2024-01-05T18:26:21.406Z,100153.47
2024-01-05T18:28:50.990Z,100138.06
2024-01-05T18:31:26.091Z,100163.94
2024-01-05T18:33:54.175Z,100146.66
2024-01-05T18:36:22.190Z,100143.78
2024-01-05T18:38:50.956Z,100157.06
2024-01-05T18:41:22.522Z,100157.88
2024-01-05T18:43:51.803Z,100168.94
2024-01-05T18:46:19.730Z,100162.97
2024-01-05T18:48:47.911Z,100167.34
2024-01-05T18:51:15.932Z,100164.72
2024-01-05T18:53:43.721Z,100154.41
2024-01-05T18:56:13.672Z,100173.19
2024-01-05T18:58:42.275Z,100142.06
2024-01-05T19:01:12.326Z,100185.31
2024-01-05T19:03:40.175Z,100174.72
2024-01-05T19:06:08.762Z,100171.34
2024-01-05T19:08:36.443Z,100170.44
2024-01-05T19:11:05.425Z,100166.16
2024-01-05T19:13:33.446Z,100187.81
2024-01-05T19:16:01.530Z,100182.56
2024-01-05T19:18:31.397Z,100170.31
2024-01-05T19:20:59.158Z,100163.81
2024-01-05T19:23:26.908Z,100180.75
2024-01-05T19:25:54.593Z,100190.22
2024-01-05T19:28:24.081Z,100197.91
2024-01-05T19:30:51.782Z,100184.00
2024-01-05T19:33:19.497Z,100180.50
2024-01-05T19:35:49.565Z,100195.19
2024-01-05T19:38:17.484Z,100185.69
2024-01-05T19:40:45.400Z,100192.84
2024-01-05T19:43:13.179Z,100208.19
2024-01-05T19:45:42.418Z,100197.03
2024-01-05T19:48:10.360Z,100195.38
2024-01-05T19:50:38.757Z,100191.53
2024-01-05T19:53:07.847Z,100178.97
2024-01-05T19:55:35.528Z,100181.25
2024-01-05T19:58:03.200Z,100196.97
2024-01-05T20:00:30.981Z,100181.28
2024-01-05T20:02:58.685Z,100189.97
2024-01-05T20:05:26.881Z,100193.16
2024-01-05T20:07:59.405Z,100190.88
2024-01-05T20:10:29.578Z,100200.16
2024-01-05T20:12:57.377Z,100196.81
2024-01-05T20:15:27.326Z,100179.63
2024-01-05T20:17:56.068Z,100201.69
2024-01-05T20:20:24.378Z,100204.34
2024-01-05T20:22:52.210Z,100200.09
2024-01-05T20:25:20.821Z,100201.63
2024-01-05T20:27:49.911Z,100205.09
2024-01-05T20:30:18.460Z,100229.19
2024-01-05T20:32:46.247Z,100218.22
2024-01-05T20:35:14.059Z,100224.03
2024-01-05T20:37:41.706Z,100225.78
2024-01-05T20:40:10.529Z,100224.81
2024-01-05T20:42:38.911Z,100221.31
2024-01-05T20:45:12.643Z,100237.31
2024-01-05T20:47:40.842Z,100204.41
2024-01-05T20:50:09.489Z,100206.84
2024-01-05T20:52:37.289Z,100210.28
2024-01-05T20:55:05.487Z,100215.41
2024-01-05T20:57:33.239Z,100207.53
2024-01-05T21:00:00.972Z,100231.97
2024-01-05T21:02:30.224Z,100207.63
2024-01-05T21:04:58.090Z,100233.56
2024-01-05T21:07:25.980Z,100227.56
2024-01-05T21:09:53.747Z,100236.03
2024-01-05T21:12:22.724Z,100226.59
2024-01-05T21:14:50.407Z,100221.38
2024-01-05T21:17:18.087Z,100231.06
2024-01-05T21:19:47.333Z,100227.53
2024-01-05T21:22:15.923Z,100236.06
2024-01-05T21:24:44.409Z,100236.16
2024-01-05T21:27:12.419Z,100236.84
2024-01-05T21:29:42.695Z,100224.66
2024-01-05T21:32:10.502Z,100244.56
2024-01-05T21:34:41.007Z,100230.59
2024-01-05T21:37:10.350Z,100231.44
2024-01-05T21:39:38.517Z,100218.69
2024-01-05T21:42:08.184Z,100233.41
2024-01-05T21:44:35.895Z,100221.34
2024-01-05T21:47:03.557Z,100217.19
2024-01-05T21:49:31.519Z,100227.06
2024-01-05T21:52:00.072Z,100238.47
2024-01-05T21:54:29.291Z,100235.25
2024-01-05T21:56:57.224Z,100230.63
2024-01-05T21:59:24.936Z,100236.84
2024-01-05T22:01:52.581Z,100235.06
2024-01-05T22:04:20.325Z,100245.38
2024-01-05T22:06:48.092Z,100241.84
2024-01-05T22:09:17.142Z,100227.16
2024-01-05T22:11:46.386Z,100238.25
2024-01-05T22:14:14.987Z,100249.66
2024-01-05T22:16:43.323Z,100264.19
2024-01-05T22:19:11.312Z,100255.69
2024-01-05T22:21:39.418Z,100248.72
2024-01-05T22:24:08.913Z,100246.84
2024-01-05T22:26:37.172Z,100253.88
2024-01-05T22:29:07.183Z,100252.00
2024-01-05T22:31:34.956Z,100233.84
2024-01-05T22:34:02.861Z,100255.44
2024-01-05T22:36:30.622Z,100250.09
2024-01-05T22:38:58.307Z,100249.34
2024-01-05T22:41:25.954Z,100252.75
2024-01-05T22:43:54.542Z,100243.25
2024-01-05T22:46:24.176Z,100264.84
2024-01-05T22:48:51.976Z,100218.66
2024-01-05T22:51:24.473Z,100261.34
2024-01-05T22:53:52.260Z,100274.09
2024-01-05T22:56:20.187Z,100270.59
2024-01-05T22:58:47.896Z,100276.69
2024-01-05T23:01:20.314Z,100287.91
2024-01-05T23:03:50.698Z,100277.44
2024-01-05T23:06:18.827Z,100289.31
2024-01-05T23:08:46.613Z,100288.72
2024-01-05T23:11:14.327Z,100306.75
2024-01-05T23:13:42.034Z,100290.09
2024-01-05T23:16:09.751Z,100298.88
2024-01-05T23:18:37.637Z,100299.69
2024-01-05T23:21:07.062Z,100286.63
2024-01-05T23:23:37.511Z,100289.34
2024-01-05T23:26:06.264Z,100311.72
2024-01-05T23:28:33.954Z,100304.66
2024-01-05T23:31:01.744Z,100304.69
2024-01-05T23:33:29.595Z,100308.22
2024-01-05T23:35:57.295Z,100293.97
2024-01-05T23:38:26.712Z,100312.63
2024-01-05T23:40:55.362Z,100305.66
2024-01-05T23:43:24.036Z,100306.56
2024-01-05T23:45:52.655Z,100292.56
2024-01-05T23:48:20.639Z,100292.75
2024-01-05T23:50:48.403Z,100308.25
2024-01-05T23:53:16.428Z,100313.44
2024-01-05T23:55:45.452Z,100322.41
2024-01-05T23:58:13.106Z,100268.75
